Terminal Aerodrome Forecast
Issued by NWS

Home | Current Version | Previous Version | Text Only | Print | Product List | Glossary On
Versions: 1 2 3 4 5 6 7 8 9 10 11 12 13 14 15 16
140
FTUS46 KPDT 240205 AAA
TAFBDN
TAF AMD
KBDN 240205Z 2402/2424 36008KT P6SM SKC
     FM240400 VRB05KT P6SM SKC
     FM242100 36008KT P6SM SKC=

USA.gov is the U.S. government's official web portal to all federal, state and local government web resources and services.